sensor_id;sensor_type;location;lat;lon;timestamp;P1;durP1;ratioP1;P2;durP2;ratioP2
60014;SDS011;45867;52.480;6.056;2023-05-07T00:00:46;17.75;;;11.68;;
60014;SDS011;45867;52.480;6.056;2023-05-07T00:03:11;17.27;;;11.55;;
60014;SDS011;45867;52.480;6.056;2023-05-07T00:05:38;17.42;;;11.60;;
60014;SDS011;45867;52.480;6.056;2023-05-07T00:08:04;18.25;;;11.73;;
60014;SDS011;45867;52.480;6.056;2023-05-07T00:10:30;19.23;;;12.18;;
60014;SDS011;45867;52.480;6.056;2023-05-07T00:12:55;17.92;;;11.63;;
60014;SDS011;45867;52.480;6.056;2023-05-07T00:15:20;16.50;;;11.57;;
60014;SDS011;45867;52.480;6.056;2023-05-07T00:17:46;16.70;;;11.32;;
60014;SDS011;45867;52.480;6.056;2023-05-07T00:20:11;19.25;;;12.27;;
60014;SDS011;45867;52.480;6.056;2023-05-07T00:22:36;20.67;;;11.68;;
60014;SDS011;45867;52.480;6.056;2023-05-07T00:25:02;16.08;;;11.55;;
60014;SDS011;45867;52.480;6.056;2023-05-07T00:27:28;18.17;;;11.48;;
60014;SDS011;45867;52.480;6.056;2023-05-07T00:29:53;15.18;;;11.77;;
60014;SDS011;45867;52.480;6.056;2023-05-07T00:32:18;17.33;;;12.20;;
60014;SDS011;45867;52.480;6.056;2023-05-07T00:34:44;19.67;;;12.07;;
60014;SDS011;45867;52.480;6.056;2023-05-07T00:37:09;20.27;;;13.35;;
60014;SDS011;45867;52.480;6.056;2023-05-07T00:39:36;21.23;;;13.18;;
60014;SDS011;45867;52.480;6.056;2023-05-07T00:42:02;22.48;;;13.43;;
60014;SDS011;45867;52.480;6.056;2023-05-07T00:44:27;18.83;;;13.60;;
60014;SDS011;45867;52.480;6.056;2023-05-07T00:46:53;19.75;;;13.57;;
60014;SDS011;45867;52.480;6.056;2023-05-07T00:49:19;18.25;;;13.15;;
60014;SDS011;45867;52.480;6.056;2023-05-07T00:51:44;18.60;;;13.80;;
60014;SDS011;45867;52.480;6.056;2023-05-07T00:54:10;21.30;;;14.40;;
60014;SDS011;45867;52.480;6.056;2023-05-07T00:56:36;29.83;;;15.52;;
60014;SDS011;45867;52.480;6.056;2023-05-07T00:59:02;25.95;;;15.20;;
60014;SDS011;45867;52.480;6.056;2023-05-07T01:01:31;22.65;;;14.65;;
60014;SDS011;45867;52.480;6.056;2023-05-07T01:03:57;24.80;;;15.60;;
60014;SDS011;45867;52.480;6.056;2023-05-07T01:06:23;20.95;;;14.63;;
60014;SDS011;45867;52.480;6.056;2023-05-07T01:08:50;21.42;;;15.18;;
60014;SDS011;45867;52.480;6.056;2023-05-07T01:11:17;22.30;;;15.82;;
60014;SDS011;45867;52.480;6.056;2023-05-07T01:13:45;23.77;;;15.80;;
60014;SDS011;45867;52.480;6.056;2023-05-07T01:16:12;23.48;;;16.52;;
60014;SDS011;45867;52.480;6.056;2023-05-07T01:18:37;27.20;;;16.83;;
60014;SDS011;45867;52.480;6.056;2023-05-07T01:21:04;25.10;;;16.25;;
60014;SDS011;45867;52.480;6.056;2023-05-07T01:23:29;27.65;;;16.67;;
60014;SDS011;45867;52.480;6.056;2023-05-07T01:25:55;23.48;;;15.57;;
60014;SDS011;45867;52.480;6.056;2023-05-07T01:28:21;22.90;;;16.73;;
60014;SDS011;45867;52.480;6.056;2023-05-07T01:30:48;27.58;;;17.23;;
60014;SDS011;45867;52.480;6.056;2023-05-07T01:33:26;25.27;;;15.82;;
60014;SDS011;45867;52.480;6.056;2023-05-07T01:35:56;29.35;;;15.88;;
60014;SDS011;45867;52.480;6.056;2023-05-07T01:38:25;26.85;;;16.33;;
60014;SDS011;45867;52.480;6.056;2023-05-07T01:40:52;32.05;;;17.35;;
60014;SDS011;45867;52.480;6.056;2023-05-07T01:43:18;22.35;;;15.75;;
60014;SDS011;45867;52.480;6.056;2023-05-07T01:45:44;22.77;;;16.60;;
60014;SDS011;45867;52.480;6.056;2023-05-07T01:48:10;26.70;;;16.48;;
60014;SDS011;45867;52.480;6.056;2023-05-07T01:50:37;27.95;;;16.85;;
60014;SDS011;45867;52.480;6.056;2023-05-07T01:53:03;32.03;;;17.38;;
60014;SDS011;45867;52.480;6.056;2023-05-07T01:55:29;31.83;;;18.33;;
60014;SDS011;45867;52.480;6.056;2023-05-07T01:57:54;25.58;;;18.13;;
60014;SDS011;45867;52.480;6.056;2023-05-07T02:00:19;30.45;;;20.38;;
60014;SDS011;45867;52.480;6.056;2023-05-07T02:02:45;39.97;;;20.10;;
60014;SDS011;45867;52.480;6.056;2023-05-07T02:05:10;30.05;;;20.48;;
60014;SDS011;45867;52.480;6.056;2023-05-07T02:07:36;35.23;;;22.07;;
60014;SDS011;45867;52.480;6.056;2023-05-07T02:10:01;33.17;;;20.25;;
60014;SDS011;45867;52.480;6.056;2023-05-07T02:12:27;33.15;;;20.50;;
60014;SDS011;45867;52.480;6.056;2023-05-07T02:14:53;31.65;;;21.33;;
60014;SDS011;45867;52.480;6.056;2023-05-07T02:17:18;32.92;;;19.95;;
60014;SDS011;45867;52.480;6.056;2023-05-07T02:19:44;29.63;;;20.08;;
60014;SDS011;45867;52.480;6.056;2023-05-07T02:22:09;33.25;;;21.20;;
60014;SDS011;45867;52.480;6.056;2023-05-07T02:24:35;34.08;;;21.27;;
60014;SDS011;45867;52.480;6.056;2023-05-07T02:27:00;34.30;;;20.38;;
60014;SDS011;45867;52.480;6.056;2023-05-07T02:29:27;34.22;;;22.55;;
60014;SDS011;45867;52.480;6.056;2023-05-07T02:31:52;31.83;;;20.13;;
60014;SDS011;45867;52.480;6.056;2023-05-07T02:34:18;37.28;;;22.27;;
60014;SDS011;45867;52.480;6.056;2023-05-07T02:36:43;34.17;;;23.08;;
60014;SDS011;45867;52.480;6.056;2023-05-07T02:39:09;34.42;;;22.55;;
60014;SDS011;45867;52.480;6.056;2023-05-07T02:41:34;35.13;;;21.98;;
60014;SDS011;45867;52.480;6.056;2023-05-07T02:43:59;33.83;;;22.77;;
60014;SDS011;45867;52.480;6.056;2023-05-07T02:46:25;37.75;;;22.52;;
60014;SDS011;45867;52.480;6.056;2023-05-07T02:48:50;33.13;;;22.40;;
60014;SDS011;45867;52.480;6.056;2023-05-07T02:51:19;36.97;;;22.17;;
60014;SDS011;45867;52.480;6.056;2023-05-07T02:53:45;28.63;;;21.15;;
60014;SDS011;45867;52.480;6.056;2023-05-07T02:56:10;34.97;;;20.83;;
60014;SDS011;45867;52.480;6.056;2023-05-07T02:58:36;34.10;;;21.60;;
60014;SDS011;45867;52.480;6.056;2023-05-07T03:01:01;29.20;;;20.67;;
60014;SDS011;45867;52.480;6.056;2023-05-07T03:03:27;29.55;;;21.40;;
60014;SDS011;45867;52.480;6.056;2023-05-07T03:05:52;32.40;;;21.02;;
60014;SDS011;45867;52.480;6.056;2023-05-07T03:08:17;31.42;;;21.45;;
60014;SDS011;45867;52.480;6.056;2023-05-07T03:10:43;31.15;;;20.88;;
60014;SDS011;45867;52.480;6.056;2023-05-07T03:13:08;33.25;;;20.33;;
60014;SDS011;45867;52.480;6.056;2023-05-07T03:15:33;28.70;;;20.17;;
60014;SDS011;45867;52.480;6.056;2023-05-07T03:17:59;25.85;;;19.05;;
60014;SDS011;45867;52.480;6.056;2023-05-07T03:20:24;29.83;;;18.23;;
60014;SDS011;45867;52.480;6.056;2023-05-07T03:22:49;29.80;;;17.75;;
60014;SDS011;45867;52.480;6.056;2023-05-07T03:25:15;25.88;;;17.00;;
60014;SDS011;45867;52.480;6.056;2023-05-07T03:27:40;34.33;;;18.00;;
60014;SDS011;45867;52.480;6.056;2023-05-07T03:30:07;31.50;;;16.67;;
60014;SDS011;45867;52.480;6.056;2023-05-07T03:32:33;24.30;;;16.08;;
60014;SDS011;45867;52.480;6.056;2023-05-07T03:34:59;29.17;;;17.42;;
60014;SDS011;45867;52.480;6.056;2023-05-07T03:37:25;29.25;;;17.70;;
60014;SDS011;45867;52.480;6.056;2023-05-07T03:39:50;27.60;;;17.50;;
60014;SDS011;45867;52.480;6.056;2023-05-07T03:42:15;30.02;;;17.17;;
60014;SDS011;45867;52.480;6.056;2023-05-07T03:44:41;31.30;;;18.75;;
60014;SDS011;45867;52.480;6.056;2023-05-07T03:47:06;30.73;;;17.20;;
60014;SDS011;45867;52.480;6.056;2023-05-07T03:49:31;28.20;;;17.80;;
60014;SDS011;45867;52.480;6.056;2023-05-07T03:51:57;33.38;;;17.75;;
60014;SDS011;45867;52.480;6.056;2023-05-07T03:54:22;31.70;;;17.88;;
60014;SDS011;45867;52.480;6.056;2023-05-07T03:56:47;33.67;;;17.77;;
60014;SDS011;45867;52.480;6.056;2023-05-07T03:59:13;30.55;;;18.92;;
60014;SDS011;45867;52.480;6.056;2023-05-07T04:01:38;32.60;;;18.38;;
60014;SDS011;45867;52.480;6.056;2023-05-07T04:04:04;30.60;;;18.83;;
60014;SDS011;45867;52.480;6.056;2023-05-07T04:06:30;35.33;;;18.70;;
60014;SDS011;45867;52.480;6.056;2023-05-07T04:08:55;32.50;;;18.20;;
60014;SDS011;45867;52.480;6.056;2023-05-07T04:11:21;35.45;;;18.92;;
60014;SDS011;45867;52.480;6.056;2023-05-07T04:13:46;36.72;;;18.90;;
60014;SDS011;45867;52.480;6.056;2023-05-07T04:16:12;30.67;;;18.85;;
60014;SDS011;45867;52.480;6.056;2023-05-07T04:18:37;36.20;;;19.52;;
60014;SDS011;45867;52.480;6.056;2023-05-07T04:21:03;33.45;;;19.15;;
60014;SDS011;45867;52.480;6.056;2023-05-07T04:23:28;31.05;;;18.50;;
60014;SDS011;45867;52.480;6.056;2023-05-07T04:25:54;37.42;;;20.17;;
60014;SDS011;45867;52.480;6.056;2023-05-07T04:28:20;42.25;;;19.77;;
60014;SDS011;45867;52.480;6.056;2023-05-07T04:30:45;34.05;;;19.90;;
60014;SDS011;45867;52.480;6.056;2023-05-07T04:33:10;33.72;;;19.88;;
60014;SDS011;45867;52.480;6.056;2023-05-07T04:35:36;35.72;;;20.75;;
60014;SDS011;45867;52.480;6.056;2023-05-07T04:38:02;37.65;;;21.48;;
60014;SDS011;45867;52.480;6.056;2023-05-07T04:40:27;47.25;;;23.23;;
60014;SDS011;45867;52.480;6.056;2023-05-07T04:42:52;37.83;;;20.40;;
60014;SDS011;45867;52.480;6.056;2023-05-07T04:45:18;33.40;;;20.00;;
60014;SDS011;45867;52.480;6.056;2023-05-07T04:47:43;33.28;;;18.98;;
60014;SDS011;45867;52.480;6.056;2023-05-07T04:50:09;44.00;;;21.13;;
60014;SDS011;45867;52.480;6.056;2023-05-07T04:52:35;34.08;;;20.17;;
60014;SDS011;45867;52.480;6.056;2023-05-07T04:55:01;36.30;;;21.52;;
60014;SDS011;45867;52.480;6.056;2023-05-07T04:57:27;38.25;;;20.98;;
60014;SDS011;45867;52.480;6.056;2023-05-07T04:59:52;33.72;;;20.40;;
60014;SDS011;45867;52.480;6.056;2023-05-07T05:02:18;35.22;;;21.20;;
60014;SDS011;45867;52.480;6.056;2023-05-07T05:04:44;41.60;;;21.80;;
60014;SDS011;45867;52.480;6.056;2023-05-07T05:07:10;33.03;;;21.15;;
60014;SDS011;45867;52.480;6.056;2023-05-07T05:09:35;37.15;;;20.52;;
60014;SDS011;45867;52.480;6.056;2023-05-07T05:12:00;42.95;;;21.70;;
60014;SDS011;45867;52.480;6.056;2023-05-07T05:14:26;39.90;;;22.08;;
60014;SDS011;45867;52.480;6.056;2023-05-07T05:16:51;42.65;;;22.33;;
60014;SDS011;45867;52.480;6.056;2023-05-07T05:19:16;40.08;;;21.13;;
60014;SDS011;45867;52.480;6.056;2023-05-07T05:21:42;41.45;;;21.23;;
60014;SDS011;45867;52.480;6.056;2023-05-07T05:24:07;39.85;;;21.42;;
60014;SDS011;45867;52.480;6.056;2023-05-07T05:26:32;43.13;;;20.90;;
60014;SDS011;45867;52.480;6.056;2023-05-07T05:28:59;38.40;;;21.50;;
60014;SDS011;45867;52.480;6.056;2023-05-07T05:31:24;33.92;;;20.02;;
60014;SDS011;45867;52.480;6.056;2023-05-07T05:33:50;35.20;;;21.27;;
60014;SDS011;45867;52.480;6.056;2023-05-07T05:36:15;39.25;;;21.92;;
60014;SDS011;45867;52.480;6.056;2023-05-07T05:38:41;36.60;;;21.77;;
60014;SDS011;45867;52.480;6.056;2023-05-07T05:41:06;37.15;;;21.25;;
60014;SDS011;45867;52.480;6.056;2023-05-07T05:43:31;36.45;;;21.65;;
60014;SDS011;45867;52.480;6.056;2023-05-07T05:45:57;39.05;;;21.17;;
60014;SDS011;45867;52.480;6.056;2023-05-07T05:48:22;38.80;;;21.27;;
60014;SDS011;45867;52.480;6.056;2023-05-07T05:50:48;36.80;;;20.15;;
60014;SDS011;45867;52.480;6.056;2023-05-07T05:53:14;36.40;;;20.65;;
60014;SDS011;45867;52.480;6.056;2023-05-07T05:55:41;39.58;;;22.42;;
60014;SDS011;45867;52.480;6.056;2023-05-07T05:58:06;35.55;;;20.80;;
60014;SDS011;45867;52.480;6.056;2023-05-07T06:00:32;37.60;;;21.63;;
60014;SDS011;45867;52.480;6.056;2023-05-07T06:02:58;36.35;;;21.20;;
60014;SDS011;45867;52.480;6.056;2023-05-07T06:05:23;43.38;;;21.40;;
60014;SDS011;45867;52.480;6.056;2023-05-07T06:07:48;36.13;;;20.52;;
60014;SDS011;45867;52.480;6.056;2023-05-07T06:10:14;34.70;;;20.17;;
60014;SDS011;45867;52.480;6.056;2023-05-07T06:12:40;41.53;;;21.35;;
60014;SDS011;45867;52.480;6.056;2023-05-07T06:15:06;35.47;;;21.83;;
60014;SDS011;45867;52.480;6.056;2023-05-07T06:17:34;41.53;;;22.20;;
60014;SDS011;45867;52.480;6.056;2023-05-07T06:20:03;37.97;;;20.17;;
60014;SDS011;45867;52.480;6.056;2023-05-07T06:22:28;41.65;;;21.83;;
60014;SDS011;45867;52.480;6.056;2023-05-07T06:24:54;37.25;;;21.65;;
60014;SDS011;45867;52.480;6.056;2023-05-07T06:27:19;48.95;;;22.85;;
60014;SDS011;45867;52.480;6.056;2023-05-07T06:29:45;40.00;;;21.92;;
60014;SDS011;45867;52.480;6.056;2023-05-07T06:32:11;40.80;;;21.52;;
60014;SDS011;45867;52.480;6.056;2023-05-07T06:34:37;40.40;;;21.75;;
60014;SDS011;45867;52.480;6.056;2023-05-07T06:37:03;38.50;;;20.88;;
60014;SDS011;45867;52.480;6.056;2023-05-07T06:39:29;38.42;;;21.00;;
60014;SDS011;45867;52.480;6.056;2023-05-07T06:41:54;40.05;;;21.92;;
60014;SDS011;45867;52.480;6.056;2023-05-07T06:44:23;38.50;;;22.00;;
60014;SDS011;45867;52.480;6.056;2023-05-07T06:46:54;36.92;;;21.20;;
60014;SDS011;45867;52.480;6.056;2023-05-07T06:49:19;39.70;;;23.02;;
60014;SDS011;45867;52.480;6.056;2023-05-07T06:51:44;37.35;;;22.98;;
60014;SDS011;45867;52.480;6.056;2023-05-07T06:54:10;38.05;;;21.50;;
60014;SDS011;45867;52.480;6.056;2023-05-07T06:56:35;37.55;;;22.27;;
60014;SDS011;45867;52.480;6.056;2023-05-07T06:59:01;37.42;;;20.83;;
60014;SDS011;45867;52.480;6.056;2023-05-07T07:01:27;41.55;;;22.50;;
60014;SDS011;45867;52.480;6.056;2023-05-07T07:03:53;42.25;;;22.17;;
60014;SDS011;45867;52.480;6.056;2023-05-07T07:06:21;35.67;;;21.95;;
60014;SDS011;45867;52.480;6.056;2023-05-07T07:08:46;41.30;;;22.58;;
60014;SDS011;45867;52.480;6.056;2023-05-07T07:11:11;39.42;;;22.63;;
60014;SDS011;45867;52.480;6.056;2023-05-07T07:13:37;36.47;;;21.77;;
60014;SDS011;45867;52.480;6.056;2023-05-07T07:16:02;43.42;;;22.50;;
60014;SDS011;45867;52.480;6.056;2023-05-07T07:18:28;38.63;;;21.55;;
60014;SDS011;45867;52.480;6.056;2023-05-07T07:20:53;41.97;;;22.60;;
60014;SDS011;45867;52.480;6.056;2023-05-07T07:23:19;41.97;;;22.58;;
60014;SDS011;45867;52.480;6.056;2023-05-07T07:25:44;37.90;;;21.50;;
60014;SDS011;45867;52.480;6.056;2023-05-07T07:28:10;38.33;;;20.77;;
60014;SDS011;45867;52.480;6.056;2023-05-07T07:30:35;33.25;;;21.08;;
60014;SDS011;45867;52.480;6.056;2023-05-07T07:33:01;38.03;;;21.65;;
60014;SDS011;45867;52.480;6.056;2023-05-07T07:35:34;41.78;;;21.85;;
60014;SDS011;45867;52.480;6.056;2023-05-07T07:37:59;35.75;;;21.40;;
60014;SDS011;45867;52.480;6.056;2023-05-07T07:40:26;41.80;;;21.95;;
60014;SDS011;45867;52.480;6.056;2023-05-07T07:42:52;35.22;;;20.77;;
60014;SDS011;45867;52.480;6.056;2023-05-07T07:45:18;33.83;;;21.02;;
60014;SDS011;45867;52.480;6.056;2023-05-07T07:47:43;34.70;;;20.40;;
60014;SDS011;45867;52.480;6.056;2023-05-07T07:50:09;35.42;;;18.83;;
60014;SDS011;45867;52.480;6.056;2023-05-07T07:52:35;33.35;;;20.33;;
60014;SDS011;45867;52.480;6.056;2023-05-07T07:55:00;38.13;;;20.13;;
60014;SDS011;45867;52.480;6.056;2023-05-07T07:57:26;31.55;;;19.63;;
60014;SDS011;45867;52.480;6.056;2023-05-07T07:59:52;33.90;;;19.70;;
60014;SDS011;45867;52.480;6.056;2023-05-07T08:02:17;29.23;;;18.58;;
60014;SDS011;45867;52.480;6.056;2023-05-07T08:04:42;32.60;;;19.48;;
60014;SDS011;45867;52.480;6.056;2023-05-07T08:07:10;27.90;;;17.77;;
60014;SDS011;45867;52.480;6.056;2023-05-07T08:09:39;29.90;;;18.27;;
60014;SDS011;45867;52.480;6.056;2023-05-07T08:12:06;30.42;;;18.55;;
60014;SDS011;45867;52.480;6.056;2023-05-07T08:14:32;31.25;;;19.15;;
60014;SDS011;45867;52.480;6.056;2023-05-07T08:16:57;27.25;;;17.75;;
60014;SDS011;45867;52.480;6.056;2023-05-07T08:19:23;31.67;;;18.33;;
60014;SDS011;45867;52.480;6.056;2023-05-07T08:21:48;27.95;;;18.70;;
60014;SDS011;45867;52.480;6.056;2023-05-07T08:24:17;34.97;;;17.52;;
60014;SDS011;45867;52.480;6.056;2023-05-07T08:26:45;26.75;;;17.52;;
60014;SDS011;45867;52.480;6.056;2023-05-07T08:29:11;26.02;;;17.48;;
60014;SDS011;45867;52.480;6.056;2023-05-07T08:31:36;27.55;;;17.35;;
60014;SDS011;45867;52.480;6.056;2023-05-07T08:34:03;26.75;;;17.80;;
60014;SDS011;45867;52.480;6.056;2023-05-07T08:36:29;27.67;;;17.13;;
60014;SDS011;45867;52.480;6.056;2023-05-07T08:38:54;26.23;;;16.95;;
60014;SDS011;45867;52.480;6.056;2023-05-07T08:41:20;27.73;;;17.20;;
60014;SDS011;45867;52.480;6.056;2023-05-07T08:43:47;25.65;;;16.52;;
60014;SDS011;45867;52.480;6.056;2023-05-07T08:46:17;24.58;;;16.30;;
60014;SDS011;45867;52.480;6.056;2023-05-07T08:48:44;25.70;;;15.27;;
60014;SDS011;45867;52.480;6.056;2023-05-07T08:51:13;27.33;;;17.98;;
60014;SDS011;45867;52.480;6.056;2023-05-07T08:53:41;25.58;;;16.90;;
60014;SDS011;45867;52.480;6.056;2023-05-07T08:56:08;26.02;;;17.20;;
60014;SDS011;45867;52.480;6.056;2023-05-07T08:58:34;27.75;;;17.10;;
60014;SDS011;45867;52.480;6.056;2023-05-07T09:01:00;24.55;;;16.63;;
60014;SDS011;45867;52.480;6.056;2023-05-07T09:03:31;24.05;;;15.60;;
60014;SDS011;45867;52.480;6.056;2023-05-07T09:05:57;24.08;;;16.52;;
60014;SDS011;45867;52.480;6.056;2023-05-07T09:08:28;23.38;;;16.08;;
60014;SDS011;45867;52.480;6.056;2023-05-07T09:10:54;22.88;;;16.08;;
60014;SDS011;45867;52.480;6.056;2023-05-07T09:13:19;24.95;;;16.45;;
60014;SDS011;45867;52.480;6.056;2023-05-07T09:15:45;25.58;;;16.55;;
60014;SDS011;45867;52.480;6.056;2023-05-07T09:18:11;22.45;;;16.10;;
60014;SDS011;45867;52.480;6.056;2023-05-07T09:20:37;30.73;;;16.48;;
60014;SDS011;45867;52.480;6.056;2023-05-07T09:23:05;32.85;;;15.05;;
60014;SDS011;45867;52.480;6.056;2023-05-07T09:25:32;21.83;;;15.25;;
60014;SDS011;45867;52.480;6.056;2023-05-07T09:27:59;23.77;;;16.55;;
60014;SDS011;45867;52.480;6.056;2023-05-07T09:30:31;19.75;;;15.10;;
60014;SDS011;45867;52.480;6.056;2023-05-07T09:32:57;22.20;;;14.93;;
60014;SDS011;45867;52.480;6.056;2023-05-07T09:35:25;23.70;;;15.43;;
60014;SDS011;45867;52.480;6.056;2023-05-07T09:37:55;21.75;;;15.52;;
60014;SDS011;45867;52.480;6.056;2023-05-07T09:40:23;20.70;;;13.80;;
60014;SDS011;45867;52.480;6.056;2023-05-07T09:42:50;20.88;;;14.23;;
60014;SDS011;45867;52.480;6.056;2023-05-07T09:45:16;19.08;;;14.90;;
60014;SDS011;45867;52.480;6.056;2023-05-07T09:47:55;22.17;;;15.15;;
60014;SDS011;45867;52.480;6.056;2023-05-07T09:50:25;25.65;;;15.40;;
60014;SDS011;45867;52.480;6.056;2023-05-07T09:52:53;23.88;;;16.75;;
60014;SDS011;45867;52.480;6.056;2023-05-07T09:55:20;21.42;;;15.75;;
60014;SDS011;45867;52.480;6.056;2023-05-07T09:57:48;21.67;;;15.65;;
60014;SDS011;45867;52.480;6.056;2023-05-07T10:00:15;24.92;;;15.95;;
60014;SDS011;45867;52.480;6.056;2023-05-07T10:02:49;20.05;;;15.13;;
60014;SDS011;45867;52.480;6.056;2023-05-07T10:05:20;26.83;;;15.90;;
60014;SDS011;45867;52.480;6.056;2023-05-07T10:07:46;22.63;;;15.95;;
60014;SDS011;45867;52.480;6.056;2023-05-07T10:10:13;26.25;;;15.48;;
60014;SDS011;45867;52.480;6.056;2023-05-07T10:12:40;26.77;;;15.60;;
60014;SDS011;45867;52.480;6.056;2023-05-07T10:15:09;22.58;;;15.85;;
60014;SDS011;45867;52.480;6.056;2023-05-07T10:17:35;24.67;;;15.73;;
60014;SDS011;45867;52.480;6.056;2023-05-07T10:20:03;24.20;;;14.68;;
60014;SDS011;45867;52.480;6.056;2023-05-07T10:22:30;26.50;;;15.95;;
60014;SDS011;45867;52.480;6.056;2023-05-07T10:25:03;25.73;;;15.93;;
60014;SDS011;45867;52.480;6.056;2023-05-07T10:27:34;21.88;;;15.90;;
60014;SDS011;45867;52.480;6.056;2023-05-07T10:30:06;24.23;;;15.65;;
60014;SDS011;45867;52.480;6.056;2023-05-07T10:32:40;29.70;;;16.35;;
60014;SDS011;45867;52.480;6.056;2023-05-07T10:35:16;23.08;;;16.15;;
60014;SDS011;45867;52.480;6.056;2023-05-07T10:37:44;21.35;;;14.77;;
60014;SDS011;45867;52.480;6.056;2023-05-07T10:40:10;20.17;;;15.07;;
60014;SDS011;45867;52.480;6.056;2023-05-07T10:42:37;22.45;;;16.50;;
60014;SDS011;45867;52.480;6.056;2023-05-07T10:45:11;21.75;;;16.17;;
60014;SDS011;45867;52.480;6.056;2023-05-07T10:48:04;24.13;;;16.80;;
60014;SDS011;45867;52.480;6.056;2023-05-07T10:50:40;21.80;;;15.85;;
60014;SDS011;45867;52.480;6.056;2023-05-07T10:55:41;23.60;;;16.40;;
60014;SDS011;45867;52.480;6.056;2023-05-07T11:00:55;26.17;;;16.15;;
60014;SDS011;45867;52.480;6.056;2023-05-07T11:03:24;29.13;;;16.58;;
60014;SDS011;45867;52.480;6.056;2023-05-07T11:11:17;20.92;;;14.98;;
60014;SDS011;45867;52.480;6.056;2023-05-07T11:13:43;25.90;;;16.63;;
60014;SDS011;45867;52.480;6.056;2023-05-07T11:16:16;26.00;;;16.85;;
60014;SDS011;45867;52.480;6.056;2023-05-07T11:18:53;26.63;;;16.13;;
60014;SDS011;45867;52.480;6.056;2023-05-07T11:23:58;21.70;;;15.93;;
60014;SDS011;45867;52.480;6.056;2023-05-07T11:26:24;28.20;;;16.08;;
60014;SDS011;45867;52.480;6.056;2023-05-07T11:28:50;32.88;;;16.40;;
60014;SDS011;45867;52.480;6.056;2023-05-07T11:31:19;23.90;;;16.08;;
60014;SDS011;45867;52.480;6.056;2023-05-07T11:33:46;22.98;;;16.13;;
60014;SDS011;45867;52.480;6.056;2023-05-07T11:36:12;23.65;;;16.20;;
60014;SDS011;45867;52.480;6.056;2023-05-07T11:38:38;27.42;;;16.10;;
60014;SDS011;45867;52.480;6.056;2023-05-07T11:41:03;25.00;;;16.63;;
60014;SDS011;45867;52.480;6.056;2023-05-07T11:43:30;26.55;;;16.65;;
60014;SDS011;45867;52.480;6.056;2023-05-07T11:46:04;24.40;;;16.25;;
60014;SDS011;45867;52.480;6.056;2023-05-07T11:48:31;24.80;;;16.40;;
60014;SDS011;45867;52.480;6.056;2023-05-07T11:51:00;28.58;;;16.65;;
60014;SDS011;45867;52.480;6.056;2023-05-07T11:53:28;20.58;;;15.32;;
60014;SDS011;45867;52.480;6.056;2023-05-07T11:56:01;24.52;;;16.08;;
60014;SDS011;45867;52.480;6.056;2023-05-07T11:58:31;25.23;;;16.48;;
60014;SDS011;45867;52.480;6.056;2023-05-07T12:00:56;26.27;;;15.23;;
60014;SDS011;45867;52.480;6.056;2023-05-07T12:03:22;22.15;;;15.48;;
60014;SDS011;45867;52.480;6.056;2023-05-07T12:05:47;23.65;;;16.48;;
60014;SDS011;45867;52.480;6.056;2023-05-07T12:08:14;27.00;;;16.48;;
60014;SDS011;45867;52.480;6.056;2023-05-07T12:10:43;23.00;;;16.83;;
60014;SDS011;45867;52.480;6.056;2023-05-07T12:13:19;24.23;;;16.52;;
60014;SDS011;45867;52.480;6.056;2023-05-07T12:15:52;25.77;;;16.05;;
60014;SDS011;45867;52.480;6.056;2023-05-07T12:18:19;24.73;;;16.55;;
60014;SDS011;45867;52.480;6.056;2023-05-07T12:20:45;24.02;;;16.05;;
60014;SDS011;45867;52.480;6.056;2023-05-07T12:23:11;25.02;;;16.80;;
60014;SDS011;45867;52.480;6.056;2023-05-07T12:25:38;24.85;;;16.35;;
60014;SDS011;45867;52.480;6.056;2023-05-07T12:28:05;23.98;;;16.10;;
60014;SDS011;45867;52.480;6.056;2023-05-07T12:30:37;23.42;;;15.32;;
60014;SDS011;45867;52.480;6.056;2023-05-07T12:33:03;24.63;;;15.45;;
60014;SDS011;45867;52.480;6.056;2023-05-07T12:35:32;27.15;;;17.25;;
60014;SDS011;45867;52.480;6.056;2023-05-07T12:38:06;23.17;;;16.15;;
60014;SDS011;45867;52.480;6.056;2023-05-07T12:40:36;23.25;;;15.85;;
60014;SDS011;45867;52.480;6.056;2023-05-07T12:43:02;24.13;;;16.27;;
60014;SDS011;45867;52.480;6.056;2023-05-07T12:45:27;26.50;;;16.50;;
60014;SDS011;45867;52.480;6.056;2023-05-07T12:47:53;25.08;;;16.92;;
60014;SDS011;45867;52.480;6.056;2023-05-07T12:50:18;23.25;;;16.05;;
60014;SDS011;45867;52.480;6.056;2023-05-07T12:52:47;26.75;;;17.02;;
60014;SDS011;45867;52.480;6.056;2023-05-07T12:55:16;25.55;;;15.73;;
60014;SDS011;45867;52.480;6.056;2023-05-07T12:57:42;22.65;;;15.80;;
60014;SDS011;45867;52.480;6.056;2023-05-07T13:00:13;22.45;;;15.20;;
60014;SDS011;45867;52.480;6.056;2023-05-07T13:02:40;24.17;;;16.25;;
60014;SDS011;45867;52.480;6.056;2023-05-07T13:05:09;23.63;;;16.17;;
60014;SDS011;45867;52.480;6.056;2023-05-07T13:07:35;24.50;;;16.20;;
60014;SDS011;45867;52.480;6.056;2023-05-07T13:10:01;22.08;;;15.38;;
60014;SDS011;45867;52.480;6.056;2023-05-07T13:12:27;24.85;;;16.48;;
60014;SDS011;45867;52.480;6.056;2023-05-07T13:14:53;23.08;;;15.70;;
60014;SDS011;45867;52.480;6.056;2023-05-07T13:17:18;23.95;;;15.88;;
60014;SDS011;45867;52.480;6.056;2023-05-07T13:19:43;25.83;;;17.05;;
60014;SDS011;45867;52.480;6.056;2023-05-07T13:22:12;25.63;;;16.67;;
60014;SDS011;45867;52.480;6.056;2023-05-07T13:24:37;22.00;;;16.05;;
60014;SDS011;45867;52.480;6.056;2023-05-07T13:27:03;28.40;;;17.10;;
60014;SDS011;45867;52.480;6.056;2023-05-07T13:29:28;24.48;;;15.90;;
60014;SDS011;45867;52.480;6.056;2023-05-07T13:31:58;23.65;;;15.80;;
60014;SDS011;45867;52.480;6.056;2023-05-07T13:34:27;28.05;;;15.55;;
60014;SDS011;45867;52.480;6.056;2023-05-07T13:36:53;25.52;;;16.67;;
60014;SDS011;45867;52.480;6.056;2023-05-07T13:39:18;30.70;;;17.42;;
60014;SDS011;45867;52.480;6.056;2023-05-07T13:41:43;25.60;;;16.63;;
60014;SDS011;45867;52.480;6.056;2023-05-07T13:44:09;24.95;;;16.73;;
60014;SDS011;45867;52.480;6.056;2023-05-07T13:46:34;28.65;;;17.30;;
60014;SDS011;45867;52.480;6.056;2023-05-07T13:49:00;26.70;;;16.98;;
60014;SDS011;45867;52.480;6.056;2023-05-07T13:51:26;24.73;;;16.60;;
60014;SDS011;45867;52.480;6.056;2023-05-07T13:53:51;24.15;;;15.68;;
60014;SDS011;45867;52.480;6.056;2023-05-07T13:56:17;23.13;;;15.63;;
60014;SDS011;45867;52.480;6.056;2023-05-07T13:58:43;22.98;;;15.10;;
60014;SDS011;45867;52.480;6.056;2023-05-07T14:01:08;23.02;;;13.93;;
60014;SDS011;45867;52.480;6.056;2023-05-07T14:03:33;24.73;;;14.57;;
60014;SDS011;45867;52.480;6.056;2023-05-07T14:06:00;19.00;;;13.57;;
60014;SDS011;45867;52.480;6.056;2023-05-07T14:08:26;19.27;;;13.77;;
60014;SDS011;45867;52.480;6.056;2023-05-07T14:10:52;18.55;;;13.15;;
60014;SDS011;45867;52.480;6.056;2023-05-07T14:13:17;19.55;;;12.80;;
60014;SDS011;45867;52.480;6.056;2023-05-07T14:15:43;20.88;;;12.82;;
60014;SDS011;45867;52.480;6.056;2023-05-07T14:18:13;19.60;;;11.82;;
60014;SDS011;45867;52.480;6.056;2023-05-07T14:20:39;21.90;;;13.48;;
60014;SDS011;45867;52.480;6.056;2023-05-07T14:23:04;18.58;;;12.65;;
60014;SDS011;45867;52.480;6.056;2023-05-07T14:25:29;24.23;;;13.60;;
60014;SDS011;45867;52.480;6.056;2023-05-07T14:27:55;18.95;;;12.77;;
60014;SDS011;45867;52.480;6.056;2023-05-07T14:30:20;20.23;;;12.55;;